Time;durP1;ratioP1;P1;durP2;ratioP2;P2;SDS_P1;SDS_P2;PMS_P1;PMS_P2;Temp;Humidity;BMP_temperature;BMP_pressure;BME280_temperature;BME280_humidity;BME280_pressure;Samples;Min_cycle;Max_cycle;Signal;HPM_P1;HPM_P2
2022/06/15 00:01:22;;;;;;;4.53;3.23;;;13.40;92.50;;;;;;5033081;28;20479;-68
2022/06/15 00:03:50;;;;;;;7.27;4.03;;;13.40;92.60;;;;;;5033127;28;20468;-67
2022/06/15 00:06:21;;;;;;;6.63;3.60;;;13.40;92.70;;;;;;5033147;28;20505;-68
2022/06/15 00:08:51;;;;;;;8.00;3.20;;;13.30;92.80;;;;;;5032817;28;20427;-67
2022/06/15 00:11:22;;;;;;;5.40;3.33;;;13.30;93.00;;;;;;5033112;28;20435;-67
2022/06/15 00:13:49;;;;;;;6.30;3.50;;;13.30;93.10;;;;;;5032408;28;20491;-68
2022/06/15 00:16:17;;;;;;;5.23;3.83;;;13.20;93.20;;;;;;5032984;28;20529;-67
2022/06/15 00:18:46;;;;;;;5.70;3.53;;;13.20;93.40;;;;;;5032570;28;20459;-67
2022/06/15 00:21:14;;;;;;;5.63;3.50;;;13.20;93.50;;;;;;5032538;28;20459;-67
2022/06/15 00:23:43;;;;;;;4.37;3.63;;;13.10;93.60;;;;;;5033172;28;20985;-68
2022/06/15 00:26:10;;;;;;;4.60;3.40;;;13.10;93.70;;;;;;5035904;28;20474;-68
2022/06/15 00:28:38;;;;;;;5.27;3.30;;;13.10;93.80;;;;;;5037140;28;20454;-68
2022/06/15 00:31:06;;;;;;;5.50;3.13;;;13.00;93.90;;;;;;5036737;28;20541;-68
2022/06/15 00:33:33;;;;;;;8.60;3.30;;;13.00;94.10;;;;;;5036571;28;20494;-68
2022/06/15 00:36:04;;;;;;;5.57;3.53;;;12.90;94.20;;;;;;5036549;28;20511;-68
2022/06/15 00:38:34;;;;;;;6.20;3.40;;;12.90;94.40;;;;;;5036553;28;20443;-67
2022/06/15 00:41:05;;;;;;;6.03;3.47;;;12.90;94.60;;;;;;5036895;28;20486;-67
2022/06/15 00:43:35;;;;;;;5.20;4.20;;;12.90;94.70;;;;;;5036355;28;20472;-67
2022/06/15 00:46:16;;;;;;;7.50;6.83;;;12.80;94.80;;;;;;5036495;28;20982;-69
2022/06/15 00:48:45;;;;;;;6.03;3.70;;;12.80;94.90;;;;;;5036612;28;20485;-68
2022/06/15 00:51:13;;;;;;;7.27;3.93;;;12.80;95.00;;;;;;5036570;28;20870;-67
2022/06/15 00:53:40;;;;;;;11.70;3.80;;;12.70;95.10;;;;;;5036347;28;20568;-68
2022/06/15 00:56:10;;;;;;;6.40;3.47;;;12.70;95.30;;;;;;5036516;28;20447;-68
2022/06/15 00:58:40;;;;;;;5.00;3.40;;;12.70;95.40;;;;;;5036531;28;20442;-68
2022/06/15 01:01:07;;;;;;;8.27;3.60;;;12.60;95.50;;;;;;5036059;28;20453;-66
2022/06/15 01:03:34;;;;;;;7.83;3.83;;;12.60;95.70;;;;;;5035991;28;20556;-67
2022/06/15 01:06:10;;;;;;;6.60;3.30;;;12.60;95.90;;;;;;5036008;28;20443;-66
2022/06/15 01:08:47;;;;;;;5.40;3.30;;;12.50;96.00;;;;;;5035969;28;20429;-66
2022/06/15 01:11:47;;;;;;;6.37;3.90;;;12.50;96.10;;;;;;5036285;28;20483;-68
2022/06/15 01:14:42;;;;;;;9.77;4.47;;;12.50;96.20;;;;;;5035650;28;20528;-69
2022/06/15 01:17:23;;;;;;;4.47;3.67;;;12.50;96.30;;;;;;5039082;28;20786;-68
2022/06/15 01:20:18;;;;;;;5.93;3.80;;;12.50;96.40;;;;;;5036114;28;20542;-68
2022/06/15 01:23:27;;;;;;;5.70;3.63;;;12.50;96.50;;;;;;5035629;28;20505;-68
2022/06/15 01:26:14;;;;;;;5.33;3.67;;;12.40;96.50;;;;;;5036008;28;20482;-68
2022/06/15 01:28:46;;;;;;;7.90;3.30;;;12.40;96.60;;;;;;5035924;28;20441;-67
2022/06/15 01:31:25;;;;;;;7.70;3.57;;;12.40;96.70;;;;;;5035884;28;20442;-68
2022/06/15 01:34:02;;;;;;;6.80;4.37;;;12.30;96.80;;;;;;5035761;28;20860;-67
2022/06/15 01:36:39;;;;;;;7.60;3.80;;;12.30;97.00;;;;;;5034778;28;20447;-67
2022/06/15 01:39:10;;;;;;;5.17;3.80;;;12.20;97.10;;;;;;5035775;28;20564;-68
2022/06/15 01:41:42;;;;;;;5.87;3.73;;;12.20;97.30;;;;;;5035458;28;20439;-68
2022/06/15 01:44:13;;;;;;;7.00;3.77;;;12.20;97.40;;;;;;5035696;28;20863;-68
2022/06/15 01:46:45;;;;;;;8.53;4.50;;;12.20;97.50;;;;;;5035393;28;20480;-68
2022/06/15 01:49:18;;;;;;;4.90;4.30;;;12.10;97.60;;;;;;5035600;28;20902;-68
2022/06/15 01:51:45;;;;;;;5.93;3.57;;;12.00;97.70;;;;;;5035408;28;20437;-68
2022/06/15 01:54:18;;;;;;;4.80;3.90;;;12.00;98.00;;;;;;5035612;28;20534;-67
2022/06/15 01:56:48;;;;;;;7.00;3.60;;;12.00;98.20;;;;;;5035863;28;20965;-69
2022/06/15 01:59:21;;;;;;;4.50;3.63;;;11.90;98.20;;;;;;5035237;28;20445;-67
2022/06/15 02:01:55;;;;;;;5.17;3.63;;;11.90;98.40;;;;;;5035315;28;20890;-67
2022/06/15 02:04:31;;;;;;;5.30;3.83;;;11.80;98.40;;;;;;5035258;28;20463;-67
2022/06/15 02:07:22;;;;;;;5.57;3.53;;;11.80;98.70;;;;;;5035570;28;20859;-68
2022/06/15 02:09:54;;;;;;;6.43;3.40;;;11.80;98.80;;;;;;5035386;28;20508;-68
2022/06/15 02:12:26;;;;;;;6.23;4.40;;;11.70;99.00;;;;;;5035132;28;20438;-68
2022/06/15 02:14:59;;;;;;;6.03;3.93;;;11.70;99.10;;;;;;5035089;28;20515;-67
2022/06/15 02:17:30;;;;;;;4.70;4.10;;;11.70;99.10;;;;;;5034816;28;21004;-68
2022/06/15 02:20:01;;;;;;;4.97;3.90;;;11.70;99.30;;;;;;5035227;28;20828;-68
2022/06/15 02:22:32;;;;;;;4.17;3.73;;;11.60;99.30;;;;;;5035062;28;20433;-69
2022/06/15 02:25:04;;;;;;;6.00;4.03;;;11.60;99.40;;;;;;5035239;28;20447;-68
2022/06/15 02:27:33;;;;;;;5.80;3.60;;;11.60;99.50;;;;;;5035137;28;20437;-68
2022/06/15 02:30:05;;;;;;;4.40;4.00;;;11.60;99.70;;;;;;5035036;28;20452;-67
2022/06/15 02:32:37;;;;;;;7.47;4.33;;;11.50;99.80;;;;;;5035333;28;20437;-68
2022/06/15 02:35:05;;;;;;;4.83;4.30;;;11.50;99.90;;;;;;5034938;28;20469;-66
2022/06/15 02:37:32;;;;;;;5.03;4.50;;;11.40;99.90;;;;;;5034864;28;20853;-67
2022/06/15 02:40:00;;;;;;;5.63;4.53;;;11.40;99.90;;;;;;5035269;28;20450;-68
2022/06/15 02:42:30;;;;;;;7.47;4.63;;;11.30;99.90;;;;;;5035054;28;20464;-67
2022/06/15 02:45:01;;;;;;;5.47;4.23;;;11.30;99.90;;;;;;5035148;28;20952;-67
2022/06/15 02:47:32;;;;;;;6.10;4.60;;;11.20;99.90;;;;;;5034442;28;20463;-68
2022/06/15 02:50:03;;;;;;;5.63;4.40;;;11.20;99.90;;;;;;5033551;28;20437;-67
2022/06/15 02:52:36;;;;;;;5.30;4.53;;;11.20;99.90;;;;;;5034986;28;20933;-69
2022/06/15 02:55:04;;;;;;;11.13;4.13;;;11.10;99.90;;;;;;5034620;28;20556;-68
2022/06/15 02:57:31;;;;;;;6.23;4.57;;;11.10;99.90;;;;;;5034378;28;20441;-68
2022/06/15 02:59:59;;;;;;;6.17;4.43;;;11.10;99.90;;;;;;5034161;28;20792;-68
2022/06/15 03:02:27;;;;;;;7.22;4.95;;;11.00;99.90;;;;;;5034312;28;20457;-67
2022/06/15 03:04:55;;;;;;;9.70;5.90;;;11.00;99.90;;;;;;5033893;28;20293;-66
2022/06/15 03:07:25;;;;;;;5.23;4.73;;;11.00;99.90;;;;;;5034224;28;20530;-69
2022/06/15 03:09:53;;;;;;;6.55;5.13;;;11.00;99.90;;;;;;5033838;28;20536;-67
2022/06/15 03:12:20;;;;;;;6.53;5.83;;;10.90;99.90;;;;;;5033793;28;20571;-68
2022/06/15 03:14:47;;;;;;;6.10;4.80;;;11.00;99.90;;;;;;5033699;28;20687;-67
2022/06/15 03:17:15;;;;;;;5.23;4.83;;;10.90;99.90;;;;;;5034101;28;20489;-67
2022/06/15 03:19:43;;;;;;;6.33;5.27;;;10.90;99.90;;;;;;5033719;28;20444;-67
2022/06/15 03:22:10;;;;;;;7.10;4.93;;;11.00;99.90;;;;;;5033579;28;20449;-67
2022/06/15 03:24:39;;;;;;;5.60;5.10;;;11.00;99.90;;;;;;5033668;28;20508;-68
2022/06/15 03:27:06;;;;;;;8.27;5.17;;;11.00;99.90;;;;;;5033807;28;20499;-67
2022/06/15 03:29:36;;;;;;;9.23;5.60;;;11.00;99.90;;;;;;5033779;28;20514;-68
2022/06/15 03:32:03;;;;;;;5.72;5.22;;;11.00;99.90;;;;;;5033657;28;20445;-68
2022/06/15 03:34:30;;;;;;;5.43;4.90;;;11.00;99.90;;;;;;5050190;28;20226;-67
2022/06/15 03:36:58;;;;;;;5.77;5.23;;;11.00;99.90;;;;;;5039130;28;20446;-67
2022/06/15 03:39:25;;;;;;;17.00;6.63;;;11.00;99.90;;;;;;5033704;28;20480;-67
2022/06/15 03:41:54;;;;;;;9.52;5.32;;;11.00;99.90;;;;;;5033240;28;20441;-67
2022/06/15 03:44:22;;;;;;;6.90;6.20;;;11.00;99.90;;;;;;5033067;28;20226;-67
2022/06/15 03:46:50;;;;;;;7.15;5.32;;;11.00;99.90;;;;;;5033479;28;20202;-69
2022/06/15 03:49:17;;;;;;;8.77;5.70;;;11.00;99.90;;;;;;5033059;28;20232;-67
2022/06/15 03:51:44;;;;;;;7.30;5.10;;;11.10;99.90;;;;;;5033051;28;20452;-67
2022/06/15 03:54:12;;;;;;;10.30;5.37;;;11.30;99.90;;;;;;5032783;28;20465;-68
2022/06/15 03:56:45;;;;;;;8.00;5.33;;;11.80;99.90;;;;;;5033265;28;20954;-67
2022/06/15 03:59:14;;;;;;;5.90;5.13;;;12.30;99.90;;;;;;5033027;28;20832;-68
2022/06/15 04:01:42;;;;;;;5.20;4.50;;;12.90;99.90;;;;;;5033414;28;20514;-65
2022/06/15 04:04:10;;;;;;;4.83;3.73;;;13.30;99.80;;;;;;5032758;28;20464;-67
2022/06/15 04:09:53;;;;;;;4.77;3.97;;;14.20;97.10;;;;;;5065281;27;1426106;-67
2022/06/15 04:12:20;;;;;;;5.90;4.40;;;14.50;95.80;;;;;;5110242;28;20486;-68
2022/06/15 04:14:47;;;;;;;9.00;4.20;;;14.70;94.80;;;;;;5092489;28;20535;-69
2022/06/15 04:17:14;;;;;;;6.60;4.17;;;14.90;94.10;;;;;;5110682;28;20495;-67
2022/06/15 04:19:42;;;;;;;8.30;4.40;;;15.20;93.30;;;;;;5133549;22;20463;-63
2022/06/15 04:22:09;;;;;;;4.80;3.60;;;15.40;92.10;;;;;;5111318;28;20441;-62
2022/06/15 04:24:39;;;;;;;4.03;3.63;;;15.50;91.20;;;;;;5110947;28;20470;-62
2022/06/15 04:27:09;;;;;;;8.27;3.77;;;15.70;90.80;;;;;;5110721;28;20460;-63
2022/06/15 04:29:36;;;;;;;6.20;3.70;;;15.90;89.90;;;;;;5109867;28;20481;-61
2022/06/15 04:32:03;;;;;;;8.30;3.67;;;16.20;87.30;;;;;;5110031;28;20458;-62
2022/06/15 04:34:31;;;;;;;6.37;4.70;;;16.50;85.40;;;;;;5095917;28;20814;-61
2022/06/15 04:36:58;;;;;;;5.63;3.63;;;16.70;83.20;;;;;;5107438;28;20515;-62
2022/06/15 04:39:25;;;;;;;3.30;3.00;;;17.00;80.90;;;;;;5107299;28;20464;-61
2022/06/15 04:41:53;;;;;;;6.93;3.63;;;17.30;78.50;;;;;;5095842;28;20538;-62
2022/06/15 04:44:22;;;;;;;7.53;3.37;;;17.50;76.20;;;;;;5110049;28;20456;-62
2022/06/15 04:46:50;;;;;;;3.83;2.93;;;17.70;74.00;;;;;;5109996;28;20836;-61
2022/06/15 04:49:17;;;;;;;4.80;3.60;;;17.80;71.80;;;;;;5106552;28;20475;-62
2022/06/15 04:51:44;;;;;;;4.63;3.17;;;17.90;70.40;;;;;;5095956;28;20480;-63
2022/06/15 04:54:13;;;;;;;3.57;3.13;;;18.00;68.90;;;;;;5093446;28;20484;-62
2022/06/15 04:56:40;;;;;;;6.30;3.67;;;18.10;67.40;;;;;;5097406;28;20466;-61
2022/06/15 04:59:07;;;;;;;3.90;2.90;;;18.10;66.60;;;;;;5108207;28;20507;-62
2022/06/15 05:01:36;;;;;;;6.33;3.67;;;18.20;66.30;;;;;;5109200;28;20462;-63
2022/06/15 05:04:04;;;;;;;5.43;3.63;;;18.30;65.50;;;;;;5098980;28;20469;-61
2022/06/15 05:06:34;;;;;;;5.07;3.17;;;18.50;64.50;;;;;;5098629;28;20445;-64
2022/06/15 05:09:02;;;;;;;6.10;3.43;;;18.80;63.00;;;;;;5092509;28;20478;-63
2022/06/15 05:11:29;;;;;;;5.30;3.43;;;19.10;61.50;;;;;;5090912;28;20973;-63
2022/06/15 05:13:57;;;;;;;4.30;3.30;;;19.40;60.30;;;;;;5089641;28;21006;-61
2022/06/15 05:16:24;;;;;;;7.97;3.60;;;19.40;59.10;;;;;;5099694;28;20461;-62
2022/06/15 05:18:54;;;;;;;7.63;3.10;;;19.30;58.60;;;;;;5092164;28;20953;-62
2022/06/15 05:21:21;;;;;;;4.30;2.90;;;19.30;58.00;;;;;;5088706;28;20506;-63
2022/06/15 05:23:49;;;;;;;8.40;3.70;;;19.20;57.90;;;;;;5074925;28;20459;-62
2022/06/15 05:26:16;;;;;;;6.40;3.00;;;19.10;57.80;;;;;;5096039;28;20450;-63
2022/06/15 05:28:45;;;;;;;6.00;3.30;;;19.10;57.40;;;;;;5093859;28;20486;-63
2022/06/15 05:31:16;;;;;;;8.10;3.03;;;18.90;57.20;;;;;;5073290;28;20474;-62
2022/06/15 05:33:43;;;;;;;8.73;3.60;;;18.90;57.50;;;;;;5068239;28;20570;-62
2022/06/15 05:36:14;;;;;;;6.57;3.57;;;18.80;57.20;;;;;;5092364;28;20461;-63
2022/06/15 05:38:42;;;;;;;6.70;3.10;;;18.90;57.10;;;;;;5078570;28;20490;-62
2022/06/15 05:41:10;;;;;;;6.77;3.50;;;18.90;56.50;;;;;;5081920;28;20462;-62
2022/06/15 05:43:38;;;;;;;6.37;3.40;;;18.90;56.30;;;;;;5095122;28;20451;-63
2022/06/15 05:46:17;;;;;;;9.67;3.50;;;18.90;56.30;;;;;;5101373;28;20451;-64
2022/06/15 05:48:44;;;;;;;5.50;3.13;;;18.90;56.00;;;;;;5102267;28;20502;-63
2022/06/15 05:51:13;;;;;;;7.40;4.07;;;19.10;56.00;;;;;;5101584;28;20502;-61
2022/06/15 05:53:40;;;;;;;6.20;3.40;;;19.20;55.70;;;;;;5083852;28;20519;-61
2022/06/15 05:56:09;;;;;;;10.60;3.80;;;19.40;55.20;;;;;;5077782;28;20483;-63
2022/06/15 05:58:36;;;;;;;6.63;3.43;;;19.50;54.90;;;;;;5079438;28;20435;-61
2022/06/15 06:01:11;;;;;;;6.97;3.33;;;19.30;54.40;;;;;;5076069;28;20475;-63
2022/06/15 06:03:39;;;;;;;6.73;3.57;;;19.10;54.60;;;;;;5075666;28;20504;-61
2022/06/15 06:06:06;;;;;;;6.60;3.37;;;19.00;54.90;;;;;;5075936;28;20500;-61
2022/06/15 06:08:35;;;;;;;4.03;3.30;;;18.90;55.10;;;;;;5074096;28;20482;-61
2022/06/15 06:11:03;;;;;;;11.97;4.20;;;18.90;55.20;;;;;;5075232;28;20878;-61
2022/06/15 06:13:30;;;;;;;8.00;3.70;;;19.00;55.30;;;;;;5075049;28;20493;-61
2022/06/15 06:15:57;;;;;;;8.70;3.90;;;19.00;55.20;;;;;;5074747;28;20447;-61
2022/06/15 06:18:26;;;;;;;7.60;3.37;;;18.90;55.30;;;;;;5060285;28;20444;-60
2022/06/15 06:20:53;;;;;;;7.97;3.70;;;18.80;55.40;;;;;;5054124;28;20515;-60
2022/06/15 06:23:21;;;;;;;5.60;3.80;;;18.80;55.70;;;;;;5054195;28;20431;-60
2022/06/15 06:25:52;;;;;;;4.70;3.37;;;18.80;55.70;;;;;;5054074;28;20502;-61
2022/06/15 06:28:26;;;;;;;5.47;3.60;;;18.60;55.70;;;;;;5054233;28;20527;-58
2022/06/15 06:30:53;;;;;;;7.23;3.50;;;18.40;56.00;;;;;;5073438;28;20508;-61
2022/06/15 06:33:21;;;;;;;5.87;3.50;;;18.20;56.30;;;;;;5094411;28;20564;-60
2022/06/15 06:35:48;;;;;;;5.80;4.10;;;18.10;56.70;;;;;;5094534;28;20458;-62
2022/06/15 06:38:16;;;;;;;7.17;3.90;;;18.00;56.70;;;;;;5084202;28;21874;-61
2022/06/15 06:40:43;;;;;;;4.13;3.43;;;18.00;56.90;;;;;;5086484;28;20589;-60
2022/06/15 06:43:12;;;;;;;10.17;4.27;;;17.90;57.10;;;;;;5074177;28;20853;-60
2022/06/15 06:45:40;;;;;;;9.60;4.00;;;17.90;57.40;;;;;;5073318;28;20884;-59
2022/06/15 06:48:08;;;;;;;6.50;3.77;;;17.80;57.40;;;;;;5073691;28;20476;-63
2022/06/15 06:50:36;;;;;;;5.43;3.80;;;17.80;57.40;;;;;;5073558;28;20553;-59
2022/06/15 06:53:04;;;;;;;11.73;4.13;;;17.80;57.40;;;;;;5073267;28;20443;-61
2022/06/15 06:55:31;;;;;;;7.20;3.67;;;17.80;57.60;;;;;;5071995;28;20954;-61
2022/06/15 06:58:00;;;;;;;5.30;4.07;;;17.80;57.70;;;;;;5072642;28;20447;-62
2022/06/15 07:00:31;;;;;;;7.50;3.47;;;17.90;57.70;;;;;;5073464;28;20898;-61
2022/06/15 07:03:00;;;;;;;8.33;4.10;;;17.90;57.70;;;;;;5073738;28;20443;-61
2022/06/15 07:05:27;;;;;;;7.23;3.87;;;18.00;57.70;;;;;;5073663;28;20935;-62
2022/06/15 07:07:55;;;;;;;9.50;4.17;;;18.10;57.60;;;;;;5073496;28;20486;-61
2022/06/15 07:10:25;;;;;;;5.97;4.20;;;18.20;57.50;;;;;;5073117;28;20532;-61
2022/06/15 07:12:53;;;;;;;8.90;4.03;;;18.40;57.40;;;;;;5072004;28;20592;-62
2022/06/15 07:15:21;;;;;;;9.50;4.30;;;18.50;57.30;;;;;;5057363;28;20479;-61
2022/06/15 07:17:50;;;;;;;6.00;3.97;;;18.70;57.20;;;;;;5053460;28;20445;-61
2022/06/15 07:20:18;;;;;;;6.10;3.60;;;18.80;57.00;;;;;;5053394;28;20480;-61
2022/06/15 07:22:45;;;;;;;7.83;4.50;;;18.90;56.80;;;;;;5052324;28;20448;-61
2022/06/15 07:25:13;;;;;;;4.80;3.57;;;19.00;56.50;;;;;;5053172;28;20447;-62
2022/06/15 07:27:41;;;;;;;8.10;3.40;;;19.10;56.50;;;;;;5091736;28;20478;-61
2022/06/15 07:30:14;;;;;;;8.23;3.70;;;19.10;56.40;;;;;;5090097;28;21009;-60
2022/06/15 07:32:42;;;;;;;7.63;3.30;;;19.10;56.10;;;;;;5073017;28;20432;-61
2022/06/15 07:35:17;;;;;;;5.33;3.70;;;19.20;56.10;;;;;;5073161;28;20445;-61
2022/06/15 07:37:45;;;;;;;4.93;3.30;;;19.30;56.10;;;;;;5073048;28;20471;-61
2022/06/15 07:40:14;;;;;;;5.93;3.60;;;19.50;56.50;;;;;;5071907;28;20463;-61
2022/06/15 07:42:42;;;;;;;6.50;3.90;;;19.70;55.50;;;;;;5072777;28;21000;-60
2022/06/15 07:45:10;;;;;;;4.63;3.30;;;19.80;54.90;;;;;;5072056;28;20529;-60
2022/06/15 07:50:23;;;;;;;5.87;2.93;;;20.00;54.10;;;;;;5071789;28;20582;-61
2022/06/15 07:52:52;;;;;;;6.10;3.40;;;20.10;53.70;;;;;;5071603;28;20806;-61
2022/06/15 07:55:27;;;;;;;8.23;3.13;;;20.20;53.50;;;;;;5072794;28;20443;-60
2022/06/15 07:57:54;;;;;;;20.70;3.37;;;20.20;53.30;;;;;;5072879;28;20436;-60
2022/06/15 08:00:23;;;;;;;8.33;3.00;;;20.30;52.90;;;;;;5071715;28;20530;-61
2022/06/15 08:02:51;;;;;;;5.23;2.90;;;20.40;52.60;;;;;;5060029;28;20484;-60
2022/06/15 08:05:20;;;;;;;4.90;2.97;;;20.60;52.50;;;;;;5053083;28;20529;-61
2022/06/15 08:07:49;;;;;;;5.43;3.13;;;20.70;52.20;;;;;;5052778;28;20448;-60
2022/06/15 08:10:19;;;;;;;7.70;2.90;;;20.80;52.00;;;;;;5051419;28;20488;-59
2022/06/15 08:12:47;;;;;;;7.73;2.90;;;20.90;51.70;;;;;;5052305;28;20455;-61
2022/06/15 08:15:15;;;;;;;5.40;2.30;;;20.90;51.30;;;;;;5052437;28;20458;-61
2022/06/15 08:17:45;;;;;;;4.90;2.50;;;21.00;51.10;;;;;;5052047;28;20963;-61
2022/06/15 08:20:15;;;;;;;5.97;2.30;;;21.00;50.80;;;;;;5071954;28;20820;-60
2022/06/15 08:22:47;;;;;;;9.43;2.97;;;20.90;50.50;;;;;;5072519;28;20446;-61
2022/06/15 08:25:19;;;;;;;4.73;2.63;;;21.00;50.40;;;;;;5072265;28;20439;-60
2022/06/15 08:27:47;;;;;;;5.40;2.63;;;21.10;50.30;;;;;;5070462;28;20935;-60
2022/06/15 08:30:16;;;;;;;8.80;2.77;;;21.20;50.00;;;;;;5071908;28;20487;-60
2022/06/15 08:32:44;;;;;;;8.67;2.47;;;21.30;49.90;;;;;;5072434;28;20519;-61
2022/06/15 08:35:13;;;;;;;4.77;2.50;;;21.50;49.50;;;;;;5068962;28;20451;-60
2022/06/15 08:37:41;;;;;;;4.57;2.47;;;21.60;49.00;;;;;;5052698;28;20451;-61
2022/06/15 08:40:09;;;;;;;7.10;2.63;;;21.70;48.70;;;;;;5052382;28;20473;-60
2022/06/15 08:42:46;;;;;;;8.33;2.60;;;21.70;48.40;;;;;;5051074;28;20474;-61
2022/06/15 08:45:22;;;;;;;6.20;2.67;;;21.80;48.40;;;;;;5052149;28;20445;-61
2022/06/15 08:48:03;;;;;;;13.70;2.70;;;21.80;48.30;;;;;;5052271;28;20465;-62
2022/06/15 08:50:35;;;;;;;5.03;2.33;;;21.80;48.10;;;;;;5051646;28;20570;-60
2022/06/15 08:53:15;;;;;;;4.40;3.20;;;22.00;48.00;;;;;;5052333;28;20502;-62
2022/06/15 08:55:46;;;;;;;7.20;2.20;;;22.10;47.40;;;;;;5055206;28;20429;-61
2022/06/15 08:58:23;;;;;;;4.83;2.33;;;22.20;46.90;;;;;;5055912;28;20430;-60
2022/06/15 09:00:55;;;;;;;3.60;2.50;;;22.30;46.60;;;;;;5056074;28;20471;-60
2022/06/15 09:03:29;;;;;;;10.77;3.20;;;22.40;46.40;;;;;;5056309;28;20846;-61
2022/06/15 09:06:14;;;;;;;5.23;2.50;;;22.40;46.30;;;;;;5055933;28;20435;-60
2022/06/15 09:09:06;;;;;;;4.10;2.50;;;22.60;46.30;;;;;;5072778;28;20432;-61
2022/06/15 09:11:47;;;;;;;12.20;3.10;;;22.80;46.00;;;;;;5076945;28;20455;-61
2022/06/15 09:14:28;;;;;;;3.30;2.17;;;22.90;45.80;;;;;;5076168;28;20496;-61
2022/06/15 09:17:00;;;;;;;4.00;2.40;;;23.10;45.50;;;;;;5076391;28;20469;-62
2022/06/15 09:19:31;;;;;;;3.30;2.20;;;23.30;44.70;;;;;;5076608;28;20837;-60
2022/06/15 09:22:02;;;;;;;3.90;2.40;;;23.40;43.80;;;;;;5075552;28;20435;-62
2022/06/15 09:24:41;;;;;;;3.73;2.00;;;23.40;43.50;;;;;;5076512;28;20579;-61
2022/06/15 09:27:15;;;;;;;2.93;2.00;;;23.40;43.10;;;;;;5076304;28;20457;-62
2022/06/15 09:29:48;;;;;;;7.37;2.53;;;23.50;42.80;;;;;;5074951;28;20479;-62
2022/06/15 09:32:20;;;;;;;3.07;2.10;;;23.30;42.70;;;;;;5075717;28;20435;-61
2022/06/15 09:34:54;;;;;;;5.10;1.70;;;23.20;42.50;;;;;;5076670;28;20489;-62
2022/06/15 09:37:25;;;;;;;4.97;2.00;;;23.30;42.30;;;;;;5075481;28;20435;-63
2022/06/15 09:39:52;;;;;;;3.23;2.33;;;23.40;41.90;;;;;;5075954;28;20988;-62
2022/06/15 09:42:23;;;;;;;8.20;2.80;;;23.60;41.80;;;;;;5075665;28;20533;-63
2022/06/15 09:45:00;;;;;;;6.10;2.20;;;23.70;41.70;;;;;;5074960;28;20851;-62
2022/06/15 09:47:42;;;;;;;4.33;2.53;;;23.80;41.40;;;;;;5075216;28;20431;-62
2022/06/15 09:50:23;;;;;;;3.83;2.23;;;23.80;41.30;;;;;;5075452;28;20888;-60
2022/06/15 09:53:06;;;;;;;3.47;2.07;;;23.80;41.50;;;;;;5074600;28;20484;-63
2022/06/15 09:55:42;;;;;;;3.67;2.27;;;23.90;41.70;;;;;;5074892;28;20458;-61
2022/06/15 09:58:13;;;;;;;4.20;2.27;;;24.00;41.70;;;;;;5074074;28;20445;-62
2022/06/15 10:00:42;;;;;;;7.50;2.67;;;24.10;41.60;;;;;;5074378;28;20970;-62
2022/06/15 10:03:21;;;;;;;4.53;2.60;;;24.10;41.60;;;;;;5074812;28;20514;-61
2022/06/15 10:05:52;;;;;;;6.37;1.97;;;24.20;41.70;;;;;;5073809;28;20524;-61
2022/06/15 10:08:19;;;;;;;3.27;2.23;;;24.20;41.60;;;;;;5074641;28;20431;-63
2022/06/15 10:10:51;;;;;;;4.03;2.23;;;24.10;41.60;;;;;;5078294;28;20489;-62
2022/06/15 10:13:35;;;;;;;4.47;2.23;;;24.10;41.70;;;;;;5094602;28;20463;-62
2022/06/15 10:16:06;;;;;;;6.40;2.33;;;24.30;41.60;;;;;;5077020;28;20458;-62
2022/06/15 10:18:37;;;;;;;4.40;2.10;;;24.30;41.20;;;;;;5094874;28;20427;-63
2022/06/15 10:21:17;;;;;;;3.47;2.20;;;24.40;41.00;;;;;;5094456;28;20527;-61
2022/06/15 10:23:59;;;;;;;7.27;3.20;;;24.30;40.90;;;;;;5063095;28;20440;-62
2022/06/15 10:26:36;;;;;;;6.20;2.57;;;24.30;41.00;;;;;;5054505;28;20498;-63
2022/06/15 10:29:27;;;;;;;4.83;2.27;;;24.50;41.00;;;;;;5054684;28;20780;-63
2022/06/15 10:32:20;;;;;;;4.73;2.30;;;24.60;40.70;;;;;;5083554;28;20447;-63
2022/06/15 10:34:54;;;;;;;4.13;2.23;;;24.60;40.80;;;;;;5076236;28;20489;-62
2022/06/15 10:37:25;;;;;;;4.00;2.33;;;24.70;40.70;;;;;;5094744;28;20426;-62
2022/06/15 10:39:57;;;;;;;4.20;2.50;;;24.80;40.50;;;;;;5086123;28;20459;-63
2022/06/15 10:42:31;;;;;;;6.63;2.77;;;24.90;40.10;;;;;;5074096;28;20423;-62
2022/06/15 10:45:01;;;;;;;4.33;2.40;;;25.00;40.10;;;;;;5072900;28;20463;-61
2022/06/15 10:47:39;;;;;;;4.47;1.93;;;25.00;40.10;;;;;;5072541;28;20491;-61
2022/06/15 10:50:16;;;;;;;4.30;2.23;;;25.10;40.00;;;;;;5073829;28;20537;-62
2022/06/15 10:52:50;;;;;;;2.30;1.90;;;25.20;39.70;;;;;;5074494;28;20502;-62
2022/06/15 11:03:42;;;;;;;6.03;2.20;;;25.50;38.70;;;;;;5071555;28;20438;-61
2022/06/15 11:06:10;;;;;;;4.00;2.23;;;25.60;38.70;;;;;;5073596;28;20443;-62
2022/06/15 11:08:44;;;;;;;3.70;2.10;;;25.60;38.60;;;;;;5073515;28;20485;-61
2022/06/15 11:11:18;;;;;;;4.03;2.00;;;25.80;38.50;;;;;;5072001;28;20502;-61
2022/06/15 11:13:54;;;;;;;3.67;2.00;;;26.00;38.10;;;;;;5073366;28;20441;-62
2022/06/15 11:19:20;;;;;;;4.27;2.10;;;26.20;37.40;;;;;;5073829;28;20411;-61
2022/06/15 11:21:52;;;;;;;4.27;2.30;;;26.20;37.20;;;;;;5065496;28;20498;-62
2022/06/15 11:24:32;;;;;;;5.67;2.53;;;26.10;37.40;;;;;;5054344;28;20436;-61
2022/06/15 11:27:04;;;;;;;3.47;2.03;;;26.20;37.40;;;;;;5054343;28;20478;-61
2022/06/15 11:29:42;;;;;;;4.80;2.17;;;26.40;37.30;;;;;;5053377;28;20444;-61
2022/06/15 11:32:37;;;;;;;3.70;1.98;;;26.50;37.20;;;;;;5052167;28;20439;-61
2022/06/15 11:35:20;;;;;;;6.50;2.77;;;26.50;36.50;;;;;;5048491;28;20202;-61
2022/06/15 11:37:55;;;;;;;5.23;2.30;;;26.60;37.00;;;;;;5052574;28;20494;-61
2022/06/15 11:40:27;;;;;;;5.87;2.33;;;26.80;36.60;;;;;;5053671;28;20941;-62
2022/06/15 11:42:54;;;;;;;4.50;2.10;;;27.00;36.40;;;;;;5054063;28;20511;-63
2022/06/15 11:45:30;;;;;;;3.37;2.40;;;26.90;36.00;;;;;;5053343;28;20451;-62
2022/06/15 11:48:09;;;;;;;5.80;2.80;;;26.70;36.00;;;;;;5053360;28;20857;-63
2022/06/15 11:50:45;;;;;;;4.97;2.27;;;26.70;36.00;;;;;;5052942;28;20472;-64
2022/06/15 11:53:22;;;;;;;3.63;2.10;;;26.90;35.80;;;;;;5051970;28;20790;-63
2022/06/15 11:55:56;;;;;;;2.83;2.30;;;27.10;35.30;;;;;;5055269;28;20428;-63
2022/06/15 11:58:43;;;;;;;3.77;2.27;;;27.50;34.70;;;;;;5054015;28;20433;-64
2022/06/15 12:01:21;;;;;;;3.20;2.00;;;28.00;33.80;;;;;;5054317;28;20456;-60
2022/06/15 12:04:18;;;;;;;4.17;2.37;;;28.40;32.80;;;;;;5073090;28;20851;-63
2022/06/15 12:06:58;;;;;;;2.83;2.10;;;29.00;32.10;;;;;;5073071;28;20431;-63
2022/06/15 12:09:36;;;;;;;5.10;2.63;;;29.40;31.50;;;;;;5073020;28;20518;-65
2022/06/15 12:15:01;;;;;;;4.23;2.40;;;29.50;31.00;;;;;;5074217;28;20406;-64
2022/06/15 12:17:34;;;;;;;4.60;1.93;;;29.40;31.00;;;;;;5073712;28;20827;-63
2022/06/15 12:20:12;;;;;;;3.27;2.00;;;29.40;31.20;;;;;;5071402;28;20475;-65
2022/06/15 12:22:47;;;;;;;3.87;2.30;;;29.60;31.20;;;;;;5073340;28;20482;-65
2022/06/15 12:25:22;;;;;;;4.77;2.30;;;30.10;30.70;;;;;;5073960;28;20914;-65
2022/06/15 12:27:57;;;;;;;4.43;2.23;;;30.50;30.10;;;;;;5072844;28;20890;-64
2022/06/15 12:30:37;;;;;;;3.40;1.90;;;30.50;29.80;;;;;;5074272;28;20573;-64
2022/06/15 12:33:15;;;;;;;3.90;2.20;;;30.70;29.80;;;;;;5076578;28;20480;-64
2022/06/15 12:35:47;;;;;;;3.57;2.40;;;30.80;29.70;;;;;;5066085;28;20443;-64
2022/06/15 12:38:22;;;;;;;4.03;2.40;;;30.90;29.90;;;;;;5094937;28;20454;-66
2022/06/15 12:40:53;;;;;;;4.27;2.70;;;30.90;30.00;;;;;;5077436;28;20528;-66
2022/06/15 12:43:29;;;;;;;4.80;2.43;;;30.80;30.00;;;;;;5076540;28;20427;-65
2022/06/15 12:46:06;;;;;;;5.67;2.40;;;30.70;30.20;;;;;;5076880;28;20430;-66
2022/06/15 12:48:43;;;;;;;3.30;2.10;;;30.20;30.40;;;;;;5076670;28;20437;-64
2022/06/15 12:51:16;;;;;;;2.73;1.80;;;29.80;30.90;;;;;;5076590;28;20646;-64
2022/06/15 12:53:55;;;;;;;6.17;2.30;;;29.40;31.40;;;;;;5076217;28;20811;-65
2022/06/15 12:56:34;;;;;;;3.50;2.00;;;29.10;31.90;;;;;;5076104;28;20423;-64
2022/06/15 12:59:15;;;;;;;4.83;2.10;;;29.10;32.00;;;;;;5076911;28;20847;-65
2022/06/15 13:01:47;;;;;;;4.17;2.47;;;28.90;31.80;;;;;;5076485;28;20471;-65
2022/06/15 13:04:23;;;;;;;2.87;2.30;;;28.60;32.10;;;;;;5076171;28;20514;-67
2022/06/15 13:07:19;;;;;;;3.73;2.33;;;28.40;32.70;;;;;;5076321;28;20541;-64
2022/06/15 13:10:23;;;;;;;3.87;2.30;;;28.30;32.80;;;;;;5076040;28;20463;-66
2022/06/15 13:12:54;;;;;;;3.93;2.00;;;28.20;32.80;;;;;;5076934;28;20423;-65
2022/06/15 13:15:28;;;;;;;4.97;2.50;;;28.10;32.90;;;;;;5076667;28;20426;-65
2022/06/15 13:18:12;;;;;;;5.30;2.37;;;27.90;32.90;;;;;;5077817;28;20427;-65
2022/06/15 13:21:04;;;;;;;2.43;1.87;;;27.90;32.90;;;;;;5076261;28;20466;-64
2022/06/15 13:23:39;;;;;;;4.40;2.40;;;27.80;32.60;;;;;;5075988;28;20411;-65
2022/06/15 13:26:15;;;;;;;3.13;2.10;;;27.70;32.40;;;;;;5075668;28;20484;-64
2022/06/15 13:28:46;;;;;;;6.33;2.13;;;27.70;32.20;;;;;;5075567;28;20430;-65
2022/06/15 13:31:38;;;;;;;5.47;1.83;;;27.70;32.20;;;;;;5075478;28;20493;-65